Time;durP1;ratioP1;P1;durP2;ratioP2;P2;SDS_P1;SDS_P2;PMS_P1;PMS_P2;Temp;Humidity;BMP_temperature;BMP_pressure;BME280_temperature;BME280_humidity;BME280_pressure;Samples;Min_cycle;Max_cycle;Signal;HPM_P1;HPM_P2
2022/12/04 00:00:36;;;;;;;86.40;41.73;;;;;;;1.61;95.34;101132.27;1697395;83;21514;-77
2022/12/04 00:03:05;;;;;;;84.43;40.43;;;;;;;1.62;95.25;101133.13;1697316;84;21018;-76
2022/12/04 00:05:32;;;;;;;92.90;40.33;;;;;;;1.61;95.30;101129.67;1697785;83;21455;-77
2022/12/04 00:07:59;;;;;;;92.37;40.77;;;;;;;1.62;95.29;101131.40;1697414;84;20914;-76
2022/12/04 00:10:26;;;;;;;89.07;41.97;;;;;;;1.62;95.30;101130.11;1697616;83;21484;-76
2022/12/04 00:12:53;;;;;;;92.37;41.83;;;;;;;1.63;95.37;101128.38;1697345;83;21057;-77
2022/12/04 00:15:21;;;;;;;91.13;40.63;;;;;;;1.64;95.39;101126.27;1697675;83;21554;-76
2022/12/04 00:17:48;;;;;;;84.43;38.43;;;;;;;1.66;95.37;101121.52;1697380;83;21533;-76
2022/12/04 00:20:16;;;;;;;84.70;40.00;;;;;;;1.68;95.40;101121.55;1698533;83;21037;-76
2022/12/04 00:22:43;;;;;;;85.90;38.83;;;;;;;1.68;95.28;101119.83;1698687;83;21029;-76
2022/12/04 00:25:10;;;;;;;82.50;39.30;;;;;;;1.68;95.31;101115.95;1698961;84;21096;-76
2022/12/04 00:27:37;;;;;;;89.50;40.00;;;;;;;1.68;95.28;101125.00;1698702;83;21154;-76
2022/12/04 00:30:07;;;;;;;94.50;41.17;;;;;;;1.71;95.36;101125.45;1698889;84;21578;-77
2022/12/04 00:32:34;;;;;;;87.30;39.67;;;;;;;1.72;95.30;101122.05;1698687;83;27777;-76
2022/12/04 00:35:01;;;;;;;88.20;41.07;;;;;;;1.70;95.17;101121.16;1698968;83;21076;-76
2022/12/04 00:37:28;;;;;;;85.90;40.10;;;;;;;1.68;95.19;101132.75;1699014;83;21347;-76
2022/12/04 00:39:55;;;;;;;87.50;40.73;;;;;;;1.67;95.14;101134.91;1698920;83;21128;-76
2022/12/04 00:42:22;;;;;;;87.77;39.40;;;;;;;1.68;95.24;101135.34;1698849;83;21443;-76
2022/12/04 00:44:49;;;;;;;85.07;38.50;;;;;;;1.69;95.30;101130.63;1698825;83;21030;-77
2022/12/04 00:47:16;;;;;;;83.73;39.00;;;;;;;1.70;95.35;101123.73;1698665;84;21042;-76
2022/12/04 00:49:43;;;;;;;84.53;38.43;;;;;;;1.72;95.41;101127.22;1698749;83;21037;-76
2022/12/04 00:52:10;;;;;;;80.53;38.53;;;;;;;1.72;95.38;101119.03;1698645;83;21317;-76
2022/12/04 00:54:37;;;;;;;83.33;39.43;;;;;;;1.74;95.49;101118.59;1698617;83;21013;-76
2022/12/04 00:57:04;;;;;;;85.27;38.43;;;;;;;1.75;95.29;101115.61;1698693;83;21014;-76
2022/12/04 00:59:31;;;;;;;84.90;37.33;;;;;;;1.74;95.29;101109.98;1698713;83;21026;-76
2022/12/04 01:01:58;;;;;;;80.80;37.90;;;;;;;1.76;95.42;101107.00;1698659;83;21547;-77
2022/12/04 01:04:25;;;;;;;80.13;38.33;;;;;;;1.77;95.37;101083.77;1698640;83;21170;-76
2022/12/04 01:06:52;;;;;;;80.70;37.50;;;;;;;1.77;95.39;101095.39;1698570;83;21480;-76
2022/12/04 01:09:19;;;;;;;82.67;37.67;;;;;;;1.78;95.29;101107.45;1698600;84;21037;-76
2022/12/04 01:11:47;;;;;;;81.33;38.67;;;;;;;1.78;95.27;101110.47;1698678;84;21006;-76
2022/12/04 01:14:14;;;;;;;82.90;38.10;;;;;;;1.78;95.20;101098.84;1698554;83;21077;-76
2022/12/04 01:16:41;;;;;;;84.53;39.37;;;;;;;1.77;95.18;101099.67;1699030;83;21081;-77
2022/12/04 01:19:11;;;;;;;86.67;39.77;;;;;;;1.78;95.18;101105.30;1698603;83;21017;-76
2022/12/04 01:21:39;;;;;;;86.20;38.70;;;;;;;1.77;95.20;101105.73;1698875;83;21040;-76
2022/12/04 01:24:07;;;;;;;84.07;38.80;;;;;;;1.78;95.21;101098.84;1698910;83;21444;-76
2022/12/04 01:26:34;;;;;;;76.30;37.20;;;;;;;1.78;95.34;101090.66;1687100;83;21465;-76
2022/12/04 01:29:02;;;;;;;80.63;36.10;;;;;;;1.82;95.38;101094.56;1680767;84;21233;-76
2022/12/04 01:31:29;;;;;;;83.00;37.77;;;;;;;1.84;95.47;101094.16;1698662;83;21018;-76
2022/12/04 01:33:56;;;;;;;82.50;36.73;;;;;;;1.85;95.37;101101.91;1698739;83;20994;-76
2022/12/04 01:36:27;;;;;;;80.23;36.93;;;;;;;1.86;95.35;101099.78;1698990;83;21530;-76
2022/12/04 01:38:55;;;;;;;75.70;34.95;;;;;;;1.88;95.41;101098.06;1698892;83;21057;-76
2022/12/04 01:41:26;;;;;;;77.83;37.03;;;;;;;1.92;95.52;101095.10;1698913;83;21136;-76
2022/12/04 01:44:21;;;;;;;81.10;36.83;;;;;;;1.94;95.44;101096.85;1698746;84;20986;-76
2022/12/04 01:46:54;;;;;;;79.40;37.07;;;;;;;1.96;95.37;101087.80;1699044;83;21025;-76
2022/12/04 01:49:41;;;;;;;82.50;38.40;;;;;;;1.98;95.30;101091.27;1698780;83;21013;-76
2022/12/04 01:52:23;;;;;;;82.17;38.10;;;;;;;1.97;95.21;101094.29;1699042;83;21518;-76
2022/12/04 01:54:58;;;;;;;79.87;36.73;;;;;;;1.95;95.09;101093.40;1698795;83;21326;-76
2022/12/04 01:57:29;;;;;;;76.40;36.60;;;;;;;1.92;95.12;101089.50;1699076;83;21420;-76
2022/12/04 02:00:13;;;;;;;75.33;36.87;;;;;;;1.93;95.15;101097.68;1699040;83;20994;-75
2022/12/04 02:02:46;;;;;;;81.77;37.13;;;;;;;1.94;95.18;101102.02;1698692;83;21089;-75
2022/12/04 02:05:21;;;;;;;81.97;38.50;;;;;;;1.95;95.23;101097.28;1699051;83;21037;-75
2022/12/04 02:07:52;;;;;;;78.70;36.63;;;;;;;1.98;95.22;101092.56;1698778;83;21161;-75
2022/12/04 02:10:23;;;;;;;80.43;37.43;;;;;;;1.96;95.09;101093.83;1698894;83;21069;-75
2022/12/04 02:13:03;;;;;;;83.47;36.13;;;;;;;1.94;95.07;101095.56;1698737;83;21472;-75
2022/12/04 02:15:55;;;;;;;76.07;35.63;;;;;;;1.95;95.12;101091.25;1699197;83;21014;-76
2022/12/04 02:18:36;;;;;;;80.63;37.27;;;;;;;1.96;95.20;101091.67;1698545;84;21499;-76
2022/12/04 02:21:11;;;;;;;71.53;34.70;;;;;;;2.01;95.36;101080.95;1698158;83;21171;-76
2022/12/04 02:24:15;;;;;;;74.90;35.90;;;;;;;2.03;95.36;101075.81;1695404;83;20994;-76
2022/12/04 02:26:50;;;;;;;73.93;35.67;;;;;;;2.05;95.45;101078.85;1698792;83;21523;-75
2022/12/04 02:29:23;;;;;;;74.70;36.30;;;;;;;2.08;95.35;101085.34;1698787;83;21478;-75
2022/12/04 02:32:01;;;;;;;75.40;37.17;;;;;;;2.08;95.28;101076.69;1698793;84;21070;-76
2022/12/04 02:34:39;;;;;;;78.57;35.57;;;;;;;2.07;95.00;101078.84;1698699;83;21146;-75
2022/12/04 02:37:13;;;;;;;74.50;33.50;;;;;;;2.04;94.97;101069.34;1698520;84;21054;-75
2022/12/04 02:40:07;;;;;;;76.03;36.43;;;;;;;2.04;95.12;101076.23;1698546;84;21073;-75
2022/12/04 02:42:41;;;;;;;79.17;36.83;;;;;;;2.04;95.17;101072.36;1698678;83;21089;-75
2022/12/04 02:45:16;;;;;;;74.23;36.87;;;;;;;2.08;95.30;101076.69;1698733;83;21067;-75
2022/12/04 02:47:45;;;;;;;76.57;35.90;;;;;;;2.08;95.30;101081.46;1698949;84;21960;-74
2022/12/04 02:50:17;;;;;;;75.77;36.57;;;;;;;2.09;95.10;101079.73;1698573;83;21077;-75
2022/12/04 02:52:59;;;;;;;71.93;35.77;;;;;;;2.07;94.99;101086.17;1698823;83;21009;-75
2022/12/04 02:55:37;;;;;;;77.97;36.33;;;;;;;2.05;95.01;101068.91;1697826;83;21017;-74
2022/12/04 02:58:15;;;;;;;75.80;36.90;;;;;;;2.06;95.24;101059.89;1697706;83;21025;-75
2022/12/04 03:00:46;;;;;;;76.10;35.27;;;;;;;2.08;95.30;101062.47;1679690;84;21598;-74
2022/12/04 03:03:27;;;;;;;76.20;35.83;;;;;;;2.09;95.28;101065.52;1698659;83;21042;-75
2022/12/04 03:06:08;;;;;;;77.60;36.30;;;;;;;2.07;95.13;101070.66;1697876;83;21033;-75
2022/12/04 03:08:46;;;;;;;70.73;35.97;;;;;;;2.06;95.12;101074.54;1698722;83;21098;-74
2022/12/04 03:11:13;;;;;;;81.10;35.67;;;;;;;2.01;94.94;101071.47;1686551;84;21494;-74
2022/12/04 03:13:54;;;;;;;81.33;37.90;;;;;;;1.99;95.02;101073.60;1692173;83;21636;-74
2022/12/04 03:16:33;;;;;;;77.47;36.93;;;;;;;1.97;95.02;101067.14;1698595;83;21073;-74
2022/12/04 03:19:14;;;;;;;75.47;36.27;;;;;;;1.94;94.95;101064.53;1698983;83;21094;-74
2022/12/04 03:21:49;;;;;;;77.23;36.43;;;;;;;1.91;95.05;101071.37;1666718;86;21040;-75
2022/12/04 03:24:30;;;;;;;75.83;36.07;;;;;;;1.90;95.15;101070.52;1667550;86;21064;-74
2022/12/04 03:27:14;;;;;;;80.53;35.77;;;;;;;1.92;95.32;101073.12;1667347;86;21828;-74
2022/12/04 03:30:04;;;;;;;73.57;34.93;;;;;;;1.91;95.33;101067.09;1667482;86;20964;-74
2022/12/04 03:32:53;;;;;;;76.05;35.63;;;;;;;1.93;95.38;101060.20;1667518;86;21044;-74
2022/12/04 03:35:47;;;;;;;75.27;36.90;;;;;;;1.93;95.35;101056.75;1667758;86;21057;-75
2022/12/04 03:38:42;;;;;;;77.43;36.87;;;;;;;1.92;95.41;101057.62;1667482;84;21055;-75
2022/12/04 03:41:23;;;;;;;79.53;38.27;;;;;;;1.92;95.40;101053.30;1665687;85;21225;-75
2022/12/04 03:44:02;;;;;;;81.03;37.70;;;;;;;1.92;95.39;101058.48;1663870;86;21569;-75
2022/12/04 03:46:55;;;;;;;78.77;37.27;;;;;;;1.91;95.41;101050.69;1662871;86;20968;-72
2022/12/04 03:49:50;;;;;;;83.07;38.07;;;;;;;1.91;95.53;101052.88;1657074;86;21060;-75
2022/12/04 03:52:25;;;;;;;79.07;38.53;;;;;;;1.91;95.57;101059.34;1654084;86;21628;-75
2022/12/04 03:55:16;;;;;;;73.60;36.50;;;;;;;1.91;95.57;101058.05;1653980;86;21171;-75
2022/12/04 03:57:46;;;;;;;77.10;36.97;;;;;;;1.91;95.54;101057.16;1665727;86;21068;-75
2022/12/04 04:00:17;;;;;;;73.60;35.67;;;;;;;1.91;95.57;101049.00;1660869;86;21042;-75
2022/12/04 04:02:50;;;;;;;70.23;34.53;;;;;;;1.91;95.61;101037.37;1663600;86;21018;-75
2022/12/04 04:05:18;;;;;;;74.17;37.47;;;;;;;1.92;95.71;101036.50;1666062;86;21030;-75
2022/12/04 04:07:50;;;;;;;76.60;36.63;;;;;;;1.94;95.75;101027.05;1666058;86;21124;-75
2022/12/04 04:10:22;;;;;;;75.97;36.37;;;;;;;1.96;95.70;101030.92;1665971;86;21036;-75
2022/12/04 04:24:15;;;;;;;;;;;;;;;2.07;95.76;101037.48;1699981;84;21014;-75
2022/12/04 04:26:46;;;;;;;75.40;36.23;;;;;;;2.07;95.72;101035.75;1697484;84;20170;-75
2022/12/04 04:29:13;;;;;;;75.10;36.70;;;;;;;2.08;95.72;101039.19;1697545;84;21271;-76
2022/12/04 04:31:44;;;;;;;73.33;36.10;;;;;;;2.08;95.73;101035.31;1697318;84;21010;-75
2022/12/04 04:34:35;;;;;;;75.87;36.13;;;;;;;2.07;95.67;101038.33;1697453;84;21924;-75
2022/12/04 04:37:22;;;;;;;74.95;36.90;;;;;;;2.08;95.75;101038.80;1697660;84;21452;-76
2022/12/04 04:40:13;;;;;;;79.27;35.10;;;;;;;2.10;95.73;101038.36;1697484;84;21034;-76
2022/12/04 04:42:45;;;;;;;71.50;35.17;;;;;;;2.11;95.80;101038.81;1696534;84;21073;-76
2022/12/04 04:45:21;;;;;;;71.63;35.67;;;;;;;2.13;95.78;101037.08;1697267;84;21019;-75
2022/12/04 04:47:55;;;;;;;74.80;36.83;;;;;;;2.14;95.77;101031.08;1697611;84;21052;-75
2022/12/04 04:50:23;;;;;;;73.20;35.70;;;;;;;2.16;95.79;101037.53;1696073;84;21010;-76
2022/12/04 04:52:55;;;;;;;72.37;33.33;;;;;;;2.18;95.83;101041.01;1697596;84;21075;-75
2022/12/04 04:55:23;;;;;;;73.73;36.30;;;;;;;2.19;95.79;101046.61;1696410;84;21050;-75
2022/12/04 04:57:50;;;;;;;72.27;35.97;;;;;;;2.21;95.82;101038.44;1696579;84;21026;-75
2022/12/04 05:00:21;;;;;;;75.87;35.63;;;;;;;2.23;95.81;101038.89;1697391;84;21257;-75
2022/12/04 05:02:49;;;;;;;66.00;33.83;;;;;;;2.25;95.86;101035.47;1696505;84;21488;-75
2022/12/04 05:05:17;;;;;;;72.40;36.47;;;;;;;2.27;95.73;101039.77;1697408;84;21041;-75
2022/12/04 05:07:44;;;;;;;75.33;37.30;;;;;;;2.28;95.66;101037.64;1697533;84;21042;-75
2022/12/04 05:10:11;;;;;;;66.80;33.67;;;;;;;2.27;95.55;101029.42;1697599;84;21136;-75
2022/12/04 05:12:38;;;;;;;75.30;36.50;;;;;;;2.28;95.56;101040.23;1697547;84;21134;-75
2022/12/04 05:15:06;;;;;;;71.20;34.83;;;;;;;2.28;95.47;101031.61;1697377;84;21552;-76
2022/12/04 05:17:35;;;;;;;71.50;35.03;;;;;;;2.26;95.38;101034.61;1697366;84;21029;-75
2022/12/04 05:20:04;;;;;;;66.47;33.67;;;;;;;2.23;95.30;101036.30;1697399;84;21042;-75
2022/12/04 05:22:35;;;;;;;73.77;35.80;;;;;;;2.23;95.27;101044.50;1697624;84;21045;-75
2022/12/04 05:25:03;;;;;;;68.85;35.08;;;;;;;2.18;95.16;101039.28;1697413;84;21091;-75
2022/12/04 05:27:31;;;;;;;68.67;36.10;;;;;;;2.17;95.21;101044.03;1697278;84;21090;-75
2022/12/04 05:29:58;;;;;;;66.47;33.87;;;;;;;2.14;95.14;101043.15;1697374;84;21484;-75
2022/12/04 05:32:28;;;;;;;66.53;33.23;;;;;;;2.10;95.03;101040.94;1697699;84;21089;-75
2022/12/04 05:34:56;;;;;;;76.47;35.63;;;;;;;2.08;95.22;101036.61;1697571;84;21580;-75
2022/12/04 05:37:24;;;;;;;67.30;34.87;;;;;;;2.09;95.30;101037.06;1697321;84;21138;-75
2022/12/04 05:39:51;;;;;;;69.10;35.37;;;;;;;2.09;95.41;101033.19;1697310;84;21029;-75
2022/12/04 05:42:19;;;;;;;72.97;37.23;;;;;;;2.11;95.48;101034.08;1697370;84;21529;-75
2022/12/04 05:44:48;;;;;;;71.37;36.57;;;;;;;2.08;95.31;101038.80;1697298;84;21507;-75
2022/12/04 05:47:16;;;;;;;75.37;36.13;;;;;;;2.05;95.22;101039.17;1697344;84;21330;-76
2022/12/04 05:49:43;;;;;;;74.23;35.93;;;;;;;2.04;95.29;101033.58;1697272;84;21146;-75
2022/12/04 05:52:11;;;;;;;72.40;36.80;;;;;;;2.02;95.31;101030.96;1697488;84;20946;-75
2022/12/04 05:54:39;;;;;;;68.67;34.33;;;;;;;2.01;95.24;101033.13;1697359;84;21029;-75
2022/12/04 05:57:06;;;;;;;66.60;34.03;;;;;;;1.98;95.25;101037.84;1697342;84;21029;-75
2022/12/04 05:59:34;;;;;;;74.30;35.90;;;;;;;1.95;95.23;101036.52;1697734;84;21054;-75
2022/12/04 06:02:00;;;;;;;69.53;35.00;;;;;;;1.93;95.22;101042.09;1697646;84;21964;-75
2022/12/04 06:04:28;;;;;;;71.80;35.17;;;;;;;1.93;95.30;101053.73;1697408;84;21494;-75
2022/12/04 06:06:55;;;;;;;70.43;35.57;;;;;;;1.90;95.11;101055.00;1696252;83;21486;-75
2022/12/04 06:09:22;;;;;;;67.77;34.03;;;;;;;1.86;95.17;101054.55;1695447;83;21113;-74
2022/12/04 06:11:49;;;;;;;63.27;33.73;;;;;;;1.85;95.23;101054.09;1695150;83;21104;-75
2022/12/04 06:14:16;;;;;;;71.00;33.67;;;;;;;1.83;95.25;101055.81;1695774;83;21046;-74
2022/12/04 06:16:45;;;;;;;73.60;35.43;;;;;;;1.79;95.07;101051.02;1695017;83;21037;-75
2022/12/04 06:19:15;;;;;;;66.97;33.70;;;;;;;1.73;94.91;101053.55;1695311;83;21247;-75
2022/12/04 06:21:45;;;;;;;73.40;34.60;;;;;;;1.69;94.93;101057.37;1704752;83;21531;-75
2022/12/04 06:24:19;;;;;;;71.97;34.77;;;;;;;1.66;95.04;101054.34;1704831;83;21080;-75
2022/12/04 06:26:46;;;;;;;67.93;33.13;;;;;;;1.63;94.88;101056.03;1695404;83;21148;-74
2022/12/04 06:29:14;;;;;;;68.03;33.57;;;;;;;1.55;94.89;101059.82;1695069;83;21037;-74
2022/12/04 06:31:42;;;;;;;65.47;33.23;;;;;;;1.52;95.01;101066.25;1695145;83;21022;-74
2022/12/04 06:34:10;;;;;;;67.47;35.70;;;;;;;1.50;95.16;101058.94;1695391;83;22131;-75
2022/12/04 06:36:37;;;;;;;76.50;35.10;;;;;;;1.49;95.24;101061.92;1695151;83;21053;-74
2022/12/04 06:39:04;;;;;;;70.33;34.53;;;;;;;1.47;95.19;101063.64;1689141;83;21135;-74
2022/12/04 06:41:31;;;;;;;69.90;36.77;;;;;;;1.43;95.21;101059.70;1721041;83;21520;-74
2022/12/04 06:43:58;;;;;;;68.90;33.63;;;;;;;1.41;95.26;101063.98;1695454;83;21046;-74
2022/12/04 06:46:31;;;;;;;72.30;36.23;;;;;;;1.39;95.28;101063.98;1695239;83;21025;-74
2022/12/04 06:49:00;;;;;;;70.60;36.10;;;;;;;1.38;95.36;101067.39;1705014;83;21432;-77
2022/12/04 06:51:34;;;;;;;71.47;36.80;;;;;;;1.37;95.41;101065.67;1710160;83;21135;-74
2022/12/04 06:54:01;;;;;;;75.17;35.97;;;;;;;1.36;95.49;101066.53;1695264;83;21049;-80
2022/12/04 06:56:31;;;;;;;76.83;37.10;;;;;;;1.36;95.63;101061.37;1695157;83;21533;-75
2022/12/04 06:59:01;;;;;;;75.42;36.70;;;;;;;1.36;95.71;101061.37;1697551;83;21523;-84
2022/12/04 07:01:31;;;;;;;70.28;34.55;;;;;;;1.36;95.66;101064.34;1712748;83;21101;-77
2022/12/04 07:03:59;;;;;;;69.10;35.13;;;;;;;1.33;95.70;101064.78;1694998;83;21969;-76
2022/12/04 07:06:30;;;;;;;68.23;35.07;;;;;;;1.32;95.66;101055.71;1695291;83;21513;-75
2022/12/04 07:09:13;;;;;;;70.22;36.40;;;;;;;1.31;95.64;101055.28;1694923;83;21085;-77
2022/12/04 07:11:42;;;;;;;70.07;35.57;;;;;;;1.27;95.72;101051.77;1695365;83;21042;-75
2022/12/04 07:14:10;;;;;;;70.57;36.23;;;;;;;1.27;95.80;101044.45;1694985;83;21046;-74
2022/12/04 07:16:39;;;;;;;75.37;37.83;;;;;;;1.26;95.83;101038.86;1697634;83;21123;-75
2022/12/04 07:19:07;;;;;;;74.30;37.17;;;;;;;1.24;95.93;101039.26;1704579;83;21002;-75
2022/12/04 07:21:33;;;;;;;74.97;38.53;;;;;;;1.25;96.04;101042.30;1713511;83;22031;-75
2022/12/04 07:24:01;;;;;;;75.97;38.87;;;;;;;1.27;96.20;101052.20;1691332;83;21089;-76
2022/12/04 07:26:30;;;;;;;79.70;37.07;;;;;;;1.29;96.18;101052.66;1703029;83;21611;-75
2022/12/04 07:28:59;;;;;;;73.23;36.83;;;;;;;1.30;96.33;101045.78;1694915;83;21097;-75
2022/12/04 07:31:28;;;;;;;69.27;35.37;;;;;;;1.32;96.38;101038.92;1714739;83;21061;-77
2022/12/04 07:33:56;;;;;;;69.27;36.77;;;;;;;1.36;96.49;101036.83;1695039;83;21080;-75
2022/12/04 07:36:25;;;;;;;69.00;35.40;;;;;;;1.39;96.52;101035.56;1695138;83;21284;-74
2022/12/04 07:38:55;;;;;;;75.47;37.67;;;;;;;1.43;96.56;101046.79;1706718;83;21029;-81
2022/12/04 07:41:22;;;;;;;71.97;37.08;;;;;;;1.47;96.58;101038.20;1703312;83;21105;-76
2022/12/04 07:43:50;;;;;;;72.23;36.07;;;;;;;1.49;96.54;101039.95;1713780;83;21031;-75
2022/12/04 07:46:21;;;;;;;73.47;36.73;;;;;;;1.53;96.54;101042.17;1695288;83;21024;-77
2022/12/04 07:48:48;;;;;;;68.37;35.27;;;;;;;1.56;96.52;101034.45;1695207;83;21077;-76
2022/12/04 07:51:19;;;;;;;68.67;35.90;;;;;;;1.59;96.57;101034.47;1697986;83;21105;-75
2022/12/04 07:53:46;;;;;;;71.00;35.70;;;;;;;1.64;96.66;101030.22;1695691;83;21555;-76
2022/12/04 07:56:14;;;;;;;64.20;34.77;;;;;;;1.69;96.69;101036.70;1692320;83;21057;-76
2022/12/04 07:58:42;;;;;;;66.90;35.73;;;;;;;1.74;96.73;101037.19;1697483;83;21049;-75
2022/12/04 08:01:24;;;;;;;69.87;34.53;;;;;;;1.81;96.74;101045.88;1698447;83;21049;-76
2022/12/04 08:03:57;;;;;;;69.43;37.07;;;;;;;1.87;96.75;101048.95;1695035;83;21041;-81
2022/12/04 08:06:28;;;;;;;76.23;38.27;;;;;;;1.92;96.73;101041.67;1695525;83;21867;-82
2022/12/04 08:08:56;;;;;;;70.25;36.80;;;;;;;1.98;96.68;101042.15;1695743;83;21029;-76
2022/12/04 08:11:25;;;;;;;77.03;40.37;;;;;;;2.04;96.65;101041.33;1695855;83;21037;-77
2022/12/04 08:13:55;;;;;;;66.20;36.60;;;;;;;2.08;96.58;101049.53;1699530;83;21356;-78
2022/12/04 08:16:23;;;;;;;66.95;36.48;;;;;;;2.13;96.60;101043.98;1694299;83;21117;-78
2022/12/04 08:18:51;;;;;;;68.23;36.33;;;;;;;2.17;96.59;101047.05;1696470;83;21120;-77
2022/12/04 08:21:22;;;;;;;73.00;37.40;;;;;;;2.22;96.60;101045.36;1693434;83;21017;-77
2022/12/04 08:23:52;;;;;;;68.70;35.10;;;;;;;2.25;96.54;101046.68;1685215;83;21331;-78
2022/12/04 08:26:21;;;;;;;65.80;36.03;;;;;;;2.32;96.61;101046.28;1688240;83;21042;-76
2022/12/04 08:28:50;;;;;;;94.25;46.92;;;;;;;2.35;96.50;101052.34;1687743;83;21449;-76
2022/12/04 08:31:21;;;;;;;73.20;38.53;;;;;;;2.39;96.43;101051.52;1693399;83;21115;-78
2022/12/04 08:33:50;;;;;;;78.97;40.63;;;;;;;2.43;96.35;101053.25;1683879;83;20927;-78
2022/12/04 08:36:20;;;;;;;98.30;44.20;;;;;;;2.47;96.34;101055.45;1688708;83;21567;-77
2022/12/04 08:38:47;;;;;;;100.77;50.77;;;;;;;2.51;96.40;101053.31;1689101;83;21018;-77
2022/12/04 08:41:18;;;;;;;77.83;40.90;;;;;;;2.58;96.31;101058.12;1686170;83;21038;-76
2022/12/04 08:43:45;;;;;;;106.27;51.40;;;;;;;2.64;96.35;101064.62;1686220;83;21090;-79
2022/12/04 08:46:14;;;;;;;93.53;47.60;;;;;;;2.71;96.35;101063.78;1687299;83;21047;-77
2022/12/04 08:48:42;;;;;;;89.00;45.28;;;;;;;2.78;96.34;101060.38;1689782;83;22152;-77
2022/12/04 08:51:15;;;;;;;77.80;40.07;;;;;;;2.86;96.29;101064.31;1685132;83;21050;-77
2022/12/04 08:53:42;;;;;;;66.80;36.87;;;;;;;2.95;96.26;101067.37;1688510;83;21034;-77
2022/12/04 08:56:09;;;;;;;70.70;37.60;;;;;;;3.01;96.18;101066.09;1687928;83;21149;-77
2022/12/04 08:58:36;;;;;;;68.93;37.57;;;;;;;3.08;96.02;101069.17;1685809;83;21091;-76
2022/12/04 09:01:11;;;;;;;67.03;36.33;;;;;;;3.16;96.00;101076.95;1683262;83;21050;-76
2022/12/04 09:03:38;;;;;;;65.90;35.90;;;;;;;3.19;95.72;101071.37;1686425;83;21065;-75
2022/12/04 09:06:07;;;;;;;65.93;35.57;;;;;;;3.24;95.58;101071.37;1684588;83;21435;-77
2022/12/04 09:08:35;;;;;;;70.30;37.60;;;;;;;3.28;95.54;101067.51;1687158;83;21195;-79
2022/12/04 09:11:10;;;;;;;64.07;35.63;;;;;;;3.32;95.41;101069.67;1688205;83;21050;-78
2022/12/04 09:13:38;;;;;;;62.80;36.13;;;;;;;3.39;95.44;101071.88;1686292;83;22103;-77
2022/12/04 09:16:10;;;;;;;65.33;35.97;;;;;;;3.50;95.45;101074.06;1688408;83;21510;-76
2022/12/04 09:18:38;;;;;;;63.07;35.60;;;;;;;3.58;95.43;101073.66;1687307;83;21065;-76
2022/12/04 09:21:10;;;;;;;65.23;37.33;;;;;;;3.66;95.38;101073.23;1686564;83;22061;-76
2022/12/04 09:23:38;;;;;;;64.80;35.57;;;;;;;3.73;95.12;101070.22;1695983;83;21049;-78
2022/12/04 09:26:13;;;;;;;63.53;36.43;;;;;;;3.70;94.84;101069.77;1713751;83;21522;-75
2022/12/04 09:28:40;;;;;;;67.43;36.10;;;;;;;3.70;94.87;101064.59;1721510;83;21039;-75
2022/12/04 09:31:08;;;;;;;63.90;37.13;;;;;;;3.72;94.86;101055.09;1718719;83;21585;-76
2022/12/04 09:33:36;;;;;;;61.43;35.23;;;;;;;3.70;94.61;101052.92;1721682;83;21294;-74
2022/12/04 09:36:03;;;;;;;63.63;37.27;;;;;;;3.66;94.63;101043.83;1705035;83;21507;-76
2022/12/04 09:38:31;;;;;;;67.17;36.97;;;;;;;3.63;94.62;101041.23;1713678;83;21033;-75
2022/12/04 09:41:26;;;;;;;69.60;37.57;;;;;;;3.58;94.52;101039.52;1712767;83;21085;-75
2022/12/04 09:44:15;;;;;;;66.97;37.83;;;;;;;3.57;94.56;101035.61;1707046;83;21033;-76
2022/12/04 09:46:58;;;;;;;63.57;36.53;;;;;;;3.57;94.58;101028.73;1719374;83;21133;-80
2022/12/04 09:50:01;;;;;;;66.17;36.43;;;;;;;3.60;94.74;101029.13;1709144;83;21563;-75
2022/12/04 09:52:43;;;;;;;68.20;37.53;;;;;;;3.66;94.87;101033.05;1695748;83;21088;-80
2022/12/04 09:55:22;;;;;;;64.10;36.00;;;;;;;3.71;94.86;101026.13;1696216;83;21025;-77
2022/12/04 09:57:53;;;;;;;72.67;38.73;;;;;;;3.77;94.78;101027.45;1684533;83;21313;-76
2022/12/04 10:00:21;;;;;;;68.40;38.40;;;;;;;3.80;94.64;101022.27;1696271;83;21242;-78
2022/12/04 10:03:02;;;;;;;66.23;38.50;;;;;;;3.86;94.63;101024.44;1696264;83;21050;-78
2022/12/04 10:05:54;;;;;;;68.20;39.30;;;;;;;3.89;94.48;101023.99;1696282;83;21033;-75
2022/12/04 10:08:40;;;;;;;67.20;38.23;;;;;;;3.92;94.40;101024.43;1696307;83;21459;-78
2022/12/04 10:11:28;;;;;;;70.53;38.97;;;;;;;3.95;94.39;101016.20;1696724;83;21113;-77
2022/12/04 10:14:07;;;;;;;62.57;37.30;;;;;;;4.01;94.48;101016.64;1695383;83;21550;-78
2022/12/04 10:17:18;;;;;;;68.27;37.93;;;;;;;4.06;94.42;101012.31;1696453;83;21105;-77
2022/12/04 10:20:17;;;;;;;69.12;38.48;;;;;;;4.09;94.29;101012.75;1695805;83;21033;-79
2022/12/04 10:23:20;;;;;;;64.43;36.57;;;;;;;4.11;94.31;101022.27;1694752;83;21037;-78
2022/12/04 10:25:51;;;;;;;63.37;36.70;;;;;;;4.13;94.24;101027.02;1671063;84;21288;-80
2022/12/04 10:28:34;;;;;;;62.77;36.77;;;;;;;4.12;94.10;101021.39;1671164;84;21276;-77
2022/12/04 10:31:03;;;;;;;65.13;37.53;;;;;;;4.14;94.14;101020.10;1685153;83;21113;-76
2022/12/04 10:33:46;;;;;;;72.10;37.53;;;;;;;4.15;94.02;101015.33;1695020;83;21072;-79
2022/12/04 10:36:18;;;;;;;66.03;37.10;;;;;;;4.18;94.01;101021.81;1694358;83;21038;-75
2022/12/04 10:39:15;;;;;;;63.33;36.27;;;;;;;4.19;94.02;101015.34;1694808;83;21317;-79
2022/12/04 10:41:53;;;;;;;65.67;37.10;;;;;;;4.24;93.92;101017.94;1694998;83;21411;-74
2022/12/04 10:44:20;;;;;;;65.60;37.77;;;;;;;4.25;93.88;101019.22;1694661;83;21037;-77
2022/12/04 10:46:49;;;;;;;67.80;37.33;;;;;;;4.28;93.89;101017.50;1694936;83;21102;-75
2022/12/04 10:49:27;;;;;;;61.43;36.53;;;;;;;4.28;93.69;101018.80;1703131;83;21022;-75
2022/12/04 10:51:55;;;;;;;66.43;36.20;;;;;;;4.25;93.52;101013.17;1704550;83;21025;-74
2022/12/04 10:54:39;;;;;;;64.13;36.30;;;;;;;4.25;93.63;101010.58;1695093;83;21079;-80
2022/12/04 10:57:10;;;;;;;68.00;37.33;;;;;;;4.29;93.78;101014.02;1693656;83;22374;-75
2022/12/04 10:59:41;;;;;;;66.40;38.03;;;;;;;4.28;93.68;101011.86;1695217;83;21547;-75
2022/12/04 11:02:26;;;;;;;67.03;37.43;;;;;;;4.32;93.86;101013.57;1693859;83;21049;-74
2022/12/04 11:05:07;;;;;;;62.83;35.70;;;;;;;4.38;93.85;101007.09;1695159;83;21078;-74
2022/12/04 11:07:38;;;;;;;63.57;36.57;;;;;;;4.42;93.98;100997.13;1695030;83;21971;-74
2022/12/04 11:10:20;;;;;;;65.10;35.43;;;;;;;4.46;93.79;101007.06;1683980;84;21029;-77
2022/12/04 11:13:07;;;;;;;62.17;36.33;;;;;;;4.46;93.62;100995.38;1693403;84;21050;-73
2022/12/04 11:15:37;;;;;;;64.87;36.47;;;;;;;4.47;93.60;100994.09;1696800;84;21053;-74
2022/12/04 11:18:20;;;;;;;62.70;35.63;;;;;;;4.48;93.49;100993.20;1696656;84;21487;-74
2022/12/04 11:21:08;;;;;;;64.07;37.03;;;;;;;4.52;93.53;100990.60;1697807;84;21118;-72
2022/12/04 11:23:47;;;;;;;71.10;38.10;;;;;;;4.54;93.41;100993.63;1682771;84;21046;-74
2022/12/04 11:26:17;;;;;;;63.17;35.43;;;;;;;4.55;93.50;100994.52;1682504;84;21034;-75
2022/12/04 11:28:49;;;;;;;61.87;35.90;;;;;;;4.58;93.52;100990.17;1681905;84;21046;-74
2022/12/04 11:31:21;;;;;;;57.70;33.83;;;;;;;4.61;93.50;100995.34;1681953;84;21058;-74
2022/12/04 11:33:56;;;;;;;69.33;40.00;;;;;;;4.64;93.67;100989.28;1681925;84;21818;-76
2022/12/04 11:36:29;;;;;;;67.47;37.17;;;;;;;4.68;93.57;100989.28;1681808;84;21109;-75
2022/12/04 11:39:23;;;;;;;64.10;35.70;;;;;;;4.72;93.61;100991.87;1681910;84;21046;-76
2022/12/04 11:42:16;;;;;;;64.63;36.27;;;;;;;4.78;93.62;100984.91;1682025;84;21547;-75
2022/12/04 11:45:10;;;;;;;73.57;43.17;;;;;;;4.80;93.37;100984.91;1682108;84;21086;-77
2022/12/04 11:47:38;;;;;;;69.00;39.30;;;;;;;4.84;93.35;100984.02;1681842;84;21162;-76
2022/12/04 11:50:36;;;;;;;56.20;33.63;;;;;;;4.87;93.36;100975.77;1665271;84;21543;-75
2022/12/04 11:53:15;;;;;;;55.23;32.93;;;;;;;4.95;93.54;100968.38;1666937;84;21513;-74
2022/12/04 11:56:26;;;;;;;54.67;31.93;;;;;;;5.07;93.56;100970.91;1681905;84;21442;-77